Flight Track Log - Related Links

Times and Time Zones

All times are in EDT time to prevent confusion due to time zone crossing. See the AWE1788 flight status page for this flight to view local times or setup timezone preferences in your user account.

Time Position Orientation Groundspeed Altitude Reporting Facility
EDT Latitude Longitude Course Direction KTS MPH feet Rate Location/Type
Mon 11:18:30 PM 35.1978 -80.9658 52° Northeast 167 192 2,000  Level Atlanta Center
Mon 11:19:55 PM 35.1600 -81.0383 238° Southwest 220 253 3,300 1,283 Climbing Atlanta Center
Mon 11:21:00 PM 35.1167 -81.2036 270° West  Level FlightAware
Mon 11:21:09 PM 35.2292 -81.0564 348° North 300 345 5,400  Level Atlanta Center
Mon 11:22:00 PM 35.2174 -81.2167 North  Level FlightAware
Mon 11:22:09 PM 35.3058 -81.0281 17° North 287 330 7,800  Level Atlanta Center
Mon 11:23:00 PM 35.2945 -81.1492 52° Northeast  Level FlightAware
Mon 11:23:09 PM 35.3803 -81.0000 17° North 282 325 10,100  Level Atlanta Center
Mon 11:24:09 PM 35.4650 -80.9711 16° North 291 335 11,100 900 Climbing Atlanta Center
Mon 11:25:09 PM 35.5536 -81.0061 342° North 325 374 11,900 1,300 Climbing Atlanta Center
Mon 11:26:09 PM 35.6347 -81.0900 320° Northwest 356 410 13,700 1,700 Climbing Atlanta Center
Mon 11:27:09 PM 35.7203 -81.1739 321° Northwest 385 443 15,300 1,650 Climbing Atlanta Center
Mon 11:28:09 PM 35.8058 -81.2606 321° Northwest 395 455 17,000 1,350 Climbing Atlanta Center
Mon 11:29:09 PM 35.8911 -81.3500 320° Northwest 401 461 18,000 1,150 Climbing Atlanta Center
Mon 11:30:09 PM 35.9786 -81.4419 320° Northwest 406 467 19,300 1,300 Climbing Atlanta Center
Mon 11:31:09 PM 36.0703 -81.5317 322° Northwest 416 479 20,600 1,150 Climbing Atlanta Center
Mon 11:32:09 PM 36.1575 -81.6267 319° Northwest 416 479 21,600 1,000 Climbing Atlanta Center
Mon 11:33:09 PM 36.2511 -81.7217 321° Northwest 416 479 22,600 1,050 Climbing Atlanta Center
Mon 11:34:09 PM 36.3533 -81.8242 321° Northwest 428 493 23,700 843 Climbing Atlanta Center
Mon 11:36:14 PM 36.5383 -82.0181 320° Northwest 445 512 25,200 742 Climbing Indianapolis Center
Mon 11:37:15 PM 36.6344 -82.1183 320° Northwest 451 519 26,000 829 Climbing Indianapolis Center
Mon 11:38:17 PM 36.7472 -82.2375 320° Northwest 456 525 26,900 732 Climbing Indianapolis Center
Mon 11:39:18 PM 36.8464 -82.3403 320° Northwest 464 534 27,500 787 Climbing Indianapolis Center
Mon 11:40:19 PM 36.9428 -82.4422 320° Northwest 459 528 28,500 1,122 Climbing Indianapolis Center
Mon 11:41:21 PM 37.0381 -82.5425 320° Northwest 453 521 29,800 1,024 Climbing Indianapolis Center
Mon 11:42:22 PM 37.1314 -82.6428 319° Northwest 446 513 30,600 829 Climbing Indianapolis Center
Mon 11:43:24 PM 37.2253 -82.7433 320° Northwest 447 514 31,500 683 Climbing Indianapolis Center
Mon 11:44:25 PM 37.3356 -82.8617 320° Northwest 449 517 32,000 246 Climbing Indianapolis Center
Mon 11:45:26 PM 37.4392 -82.9517 325° Northwest 454 522 32,000 98 Level Indianapolis Center
Mon 11:46:28 PM 37.5428 -83.0394 326° Northwest 449 517 32,200 537 Climbing Indianapolis Center
Mon 11:47:29 PM 37.6481 -83.1283 326° Northwest 454 522 33,100 738 Climbing Indianapolis Center
Mon 11:48:30 PM 37.7508 -83.2172 326° Northwest 448 516 33,700 439 Climbing Indianapolis Center
Mon 11:49:32 PM 37.8550 -83.3075 326° Northwest 453 521 34,000 146 Climbing Indianapolis Center
Mon 11:50:33 PM 37.9594 -83.3956 326° Northwest 453 521 34,000  Level Indianapolis Center
Mon 11:51:34 PM 38.0628 -83.4875 325° Northwest 453 521 34,000  Level Indianapolis Center
Mon 11:52:35 PM 38.1861 -83.5931 326° Northwest 457 526 34,000  Level Indianapolis Center
Mon 11:53:37 PM 38.2911 -83.6828 326° Northwest 455 524 34,000  Level Indianapolis Center
Mon 11:54:38 PM 38.3956 -83.7744 325° Northwest 455 524 34,000  Level Indianapolis Center
Mon 11:55:39 PM 38.5014 -83.8678 325° Northwest 461 531 34,000  Level Indianapolis Center
Mon 11:56:40 PM 38.6050 -83.9597 325° Northwest 453 521 34,000  Level Indianapolis Center
Mon 11:57:42 PM 38.7033 -84.0450 326° Northwest 452 520 34,000 -49 Level Indianapolis Center
Mon 11:58:43 PM 38.8061 -84.1347 326° Northwest 446 513 33,900 -49 Descending Indianapolis Center
Mon 11:59:44 PM 38.9078 -84.2269 325° Northwest 445 512 33,900 49 Level Indianapolis Center
Tue 12:00:45 AM 39.0092 -84.3172 325° Northwest 440 506 34,000 49 Climbing Indianapolis Center
Tue 12:01:46 AM 39.1289 -84.4231 326° Northwest 439 505 34,000  Level Indianapolis Center
Tue 12:02:48 AM 39.2314 -84.5164 325° Northwest 445 512 34,000  Level Indianapolis Center
Tue 12:03:49 AM 39.3331 -84.6094 325° Northwest 444 511 34,000  Level Indianapolis Center
Tue 12:04:50 AM 39.4339 -84.7003 325° Northwest 440 506 34,000  Level Indianapolis Center
Tue 12:05:51 AM 39.5361 -84.7919 325° Northwest 442 509 34,000  Level Indianapolis Center
Tue 12:06:52 AM 39.6372 -84.8853 325° Northwest 441 507 34,000  Level Indianapolis Center
Tue 12:07:53 AM 39.7344 -84.9742 325° Northwest 440 506 34,000  Level Indianapolis Center
Tue 12:08:54 AM 39.8328 -85.0628 325° Northwest 435 501 34,000  Level Indianapolis Center
Tue 12:09:55 AM 39.9308 -85.1547 324° Northwest 436 502 34,000  Level Indianapolis Center
Tue 12:10:57 AM 40.0300 -85.2464 325° Northwest 439 505 34,000  Level Indianapolis Center
Tue 12:11:58 AM 40.1292 -85.3378 325° Northwest 440 506 34,000  Level Indianapolis Center
Tue 12:12:59 AM 40.2256 -85.4336 323° Northwest 440 506 34,000  Level Indianapolis Center
Tue 12:14:00 AM 40.3267 -85.5689 314° West 437 503 34,000  Level Indianapolis Center
Tue 12:14:47 AM 40.3939 -85.6583 315° West 439 505 34,000  Level Chicago Center
Tue 12:15:48 AM 40.4781 -85.7711 314° West 437 503 34,000  Level Chicago Center
Tue 12:16:49 AM 40.5617 -85.8875 313° West 438 504 34,000 -148 Level Chicago Center
Tue 12:17:50 AM 40.6458 -86.0047 313° West 442 509 33,700 -590 Descending Chicago Center
Tue 12:18:51 AM 40.7236 -86.1144 313° West 437 503 32,800 -934 Descending Chicago Center
Tue 12:19:52 AM 40.8075 -86.2297 314° West 434 499 31,800 -992 Descending Chicago Center
Tue 12:20:52 AM 40.8917 -86.3478 313° West 438 504 30,800 -1,884 Descending Chicago Center
Tue 12:21:53 AM 40.9789 -86.4694 314° West 448 516 28,000 -2,656 Descending Chicago Center
Tue 12:22:54 AM 41.0667 -86.5903 314° West 449 517 25,400 -2,508 Descending Chicago Center
Tue 12:23:55 AM 41.1514 -86.7086 314° West 450 518 22,900 -2,656 Descending Chicago Center
Tue 12:24:56 AM 41.2453 -86.8414 313° West 427 491 20,000 -2,557 Descending Chicago Center
Tue 12:25:57 AM 41.3233 -86.9522 313° West 418 481 17,700 -2,281 Descending Chicago Center
Tue 12:26:57 AM 41.3994 -87.0622 313° West 410 472 15,400 -1,983 Descending Chicago Center
Tue 12:27:58 AM 41.4711 -87.1633 313° West 391 450 13,700 -1,672 Descending Chicago Center
Tue 12:28:59 AM 41.5389 -87.2603 313° West 368 423 12,000 -1,328 Descending Chicago Center
Tue 12:30:00 AM 41.6006 -87.3475 313° West 335 386 11,000 -496 Descending Chicago Center
Tue 12:31:00 AM 41.6503 -87.4208 312° West 274 315 11,000 -545 Level Chicago Center
Tue 12:32:01 AM 41.7022 -87.4944 313° West 272 313 9,900 -1,525 Descending Chicago Center
Tue 12:33:02 AM 41.7692 -87.5228 342° North 274 315 7,900 -1,438 Descending Chicago Center
Tue 12:34:02 AM 41.8583 -87.5244 359° North 269 310 7,000 -1,140 Descending Chicago Center
Tue 12:35:03 AM 41.9294 -87.5244 360° North 261 300 5,600 -1,377 Descending Chicago Center
Tue 12:36:04 AM 41.9661 -87.5928 306° West 247 284 4,200 -942 Descending Chicago Center
Tue 12:37:04 AM 41.9697 -87.6717 274° West 223 257 3,700 -694 Descending Chicago Center
Tue 12:38:05 AM 41.9692 -87.7389 269° West 199 229 2,800 -885 Descending Chicago Center
Tue 12:39:06 AM 41.9689 -87.7964 270° West 169 194 1,900 -843 Descending Chicago Center
Tue 12:40:06 AM 41.9686 -87.8539 270° West 158 182 1,100 -800 Descending Chicago Center
Tue 12:42:00 AM 41.9667 -87.9000 304° West  Level FlightAware

Login

Don't have an account? Register now (free) for customized features, flight alerts, and more!